Time;durP1;ratioP1;P1;durP2;ratioP2;P2;SDS_P1;SDS_P2;PMS_P1;PMS_P2;Temp;Humidity;BMP_temperature;BMP_pressure;BME280_temperature;BME280_humidity;BME280_pressure;Samples;Min_cycle;Max_cycle;Signal;HPM_P1;HPM_P2
2022/01/19 00:02:02;;;;;;;8.25;4.03;;;4.90;99.90;;;;;;5102230;28;20413;-61
2022/01/19 00:05:28;;;;;;;9.65;4.05;;;4.90;99.90;;;;;;5099873;28;20563;-61
2022/01/19 00:08:53;;;;;;;10.40;4.40;;;4.90;99.90;;;;;;5087744;28;20122;-61
2022/01/19 00:12:18;;;;;;;10.75;4.05;;;4.90;99.90;;;;;;5102126;28;20483;-61
2022/01/19 00:15:44;;;;;;;12.63;4.50;;;4.90;99.90;;;;;;5106048;28;20039;-60
2022/01/19 00:19:09;;;;;;;7.93;4.22;;;4.90;99.90;;;;;;5104539;28;20101;-61
2022/01/19 00:22:35;;;;;;;10.30;4.85;;;4.90;99.90;;;;;;5097104;28;20075;-60
2022/01/19 00:26:00;;;;;;;10.60;4.68;;;4.90;99.90;;;;;;5090390;28;20454;-60
2022/01/19 00:29:25;;;;;;;15.30;4.90;;;4.90;99.90;;;;;;5101387;28;20031;-60
2022/01/19 00:32:51;;;;;;;14.82;4.72;;;4.90;99.90;;;;;;5106695;28;20113;-61
2022/01/19 00:36:16;;;;;;;16.95;5.20;;;5.00;99.90;;;;;;5091858;28;20043;-60
2022/01/19 00:39:41;;;;;;;14.32;5.47;;;5.00;99.90;;;;;;5101768;28;20040;-61
2022/01/19 00:43:07;;;;;;;13.32;6.60;;;5.00;99.90;;;;;;5100858;28;20530;-61
2022/01/19 00:46:32;;;;;;;11.52;6.10;;;5.00;99.90;;;;;;5103436;28;20070;-61
2022/01/19 00:49:57;;;;;;;16.67;6.65;;;5.00;99.90;;;;;;5102275;28;20063;-61
2022/01/19 00:53:23;;;;;;;12.50;6.78;;;5.00;99.90;;;;;;5105216;28;20035;-60
2022/01/19 00:56:48;;;;;;;15.68;8.43;;;5.00;99.90;;;;;;5101531;28;20039;-61
2022/01/19 01:00:13;;;;;;;20.15;8.02;;;5.00;99.90;;;;;;5088944;28;20093;-61
2022/01/19 01:03:39;;;;;;;16.48;7.40;;;5.00;99.90;;;;;;5102485;28;20044;-61
2022/01/19 01:07:04;;;;;;;14.77;6.93;;;5.00;99.90;;;;;;5102264;28;20115;-61
2022/01/19 01:10:31;;;;;;;10.88;6.38;;;5.00;99.90;;;;;;5088974;28;20495;-61
2022/01/19 01:17:12;;;;;;;12.55;7.15;;;5.00;99.90;;;;;;5102505;28;20054;-61
2022/01/19 01:20:28;;;;;;;15.02;7.22;;;5.00;99.90;;;;;;5100192;28;20112;-60
2022/01/19 01:23:54;;;;;;;15.07;7.20;;;4.90;99.90;;;;;;5088840;28;20032;-61
2022/01/19 01:27:19;;;;;;;10.65;5.20;;;4.90;99.90;;;;;;5105060;28;20427;-60
2022/01/19 01:30:45;;;;;;;14.88;5.25;;;4.90;99.90;;;;;;5088854;28;20063;-60
2022/01/19 01:34:10;;;;;;;9.93;3.88;;;4.90;99.90;;;;;;5088742;28;20046;-61
2022/01/19 01:37:35;;;;;;;11.82;4.95;;;4.90;99.90;;;;;;5105106;28;20031;-61
2022/01/19 01:41:01;;;;;;;10.65;4.15;;;4.90;99.90;;;;;;5106889;28;20415;-61
2022/01/19 01:44:26;;;;;;;17.35;4.00;;;4.90;99.90;;;;;;5099004;28;20043;-61
2022/01/19 01:48:01;;;;;;;10.88;4.28;;;4.90;99.90;;;;;;5100924;28;20036;-61
2022/01/19 01:54:41;;;;;;;7.20;4.05;;;4.90;99.90;;;;;;5109201;28;20039;-61
2022/01/19 01:58:06;;;;;;;10.38;4.40;;;4.90;99.90;;;;;;5105156;28;20429;-61
2022/01/19 02:01:31;;;;;;;10.82;4.05;;;4.90;99.90;;;;;;5105035;28;22744;-61
2022/01/19 02:04:57;;;;;;;14.50;4.35;;;4.90;99.90;;;;;;5108353;28;20042;-61
2022/01/19 02:08:23;;;;;;;12.93;4.90;;;4.90;99.90;;;;;;5104726;28;20114;-59
2022/01/19 02:24:44;;;;;;;15.10;4.63;;;4.70;99.90;;;;;;5107666;28;20032;-58
2022/01/19 02:31:51;;;;;;;14.15;5.25;;;4.70;99.90;;;;;;5089218;28;20047;-61
2022/01/19 02:41:46;;;;;;;16.95;5.88;;;4.80;99.90;;;;;;5059026;28;20384;-61
2022/01/19 02:51:39;;;;;;;18.30;7.15;;;4.80;99.90;;;;;;5090268;28;20346;-61
2022/01/19 02:55:05;;;;;;;20.20;5.88;;;4.80;99.90;;;;;;5088090;28;20040;-61
2022/01/19 02:58:31;;;;;;;28.10;9.48;;;4.80;99.90;;;;;;5109003;28;20053;-61
2022/01/19 03:10:08;;;;;;;16.00;8.25;;;4.80;99.90;;;;;;5091658;28;20081;-60
2022/01/19 03:12:34;;;;;;;18.17;7.85;;;4.80;99.90;;;;;;5109342;28;20051;-60
2022/01/19 03:14:59;;;;;;;17.08;7.85;;;4.80;99.90;;;;;;5111433;28;20032;-60
2022/01/19 03:17:25;;;;;;;23.05;9.15;;;4.80;99.90;;;;;;5093912;28;20047;-60
2022/01/19 03:19:51;;;;;;;13.88;7.20;;;4.80;99.90;;;;;;5110589;28;20048;-60
2022/01/19 03:22:19;;;;;;;22.75;8.65;;;4.80;99.90;;;;;;5109678;28;20395;-60
2022/01/19 03:24:50;;;;;;;16.60;8.18;;;4.80;99.90;;;;;;5111280;28;20027;-60
2022/01/19 03:27:16;;;;;;;14.25;7.25;;;4.80;99.90;;;;;;5103989;28;20028;-60
2022/01/19 03:29:42;;;;;;;19.20;7.40;;;4.80;99.90;;;;;;5111207;28;20052;-60
2022/01/19 03:32:09;;;;;;;15.82;6.90;;;4.80;99.90;;;;;;5096001;28;20036;-61
2022/01/19 03:34:34;;;;;;;15.88;6.45;;;4.80;99.90;;;;;;5110561;28;20153;-60
2022/01/19 03:37:00;;;;;;;19.40;6.80;;;4.80;99.90;;;;;;5109281;28;20118;-60
2022/01/19 03:39:26;;;;;;;16.75;7.40;;;4.80;99.90;;;;;;5111255;28;20055;-60
2022/01/19 03:41:51;;;;;;;16.02;7.15;;;4.80;99.90;;;;;;5099477;28;20058;-60
2022/01/19 03:44:17;;;;;;;18.90;8.77;;;4.80;99.90;;;;;;5107412;28;20023;-60
2022/01/19 03:46:54;;;;;;;15.02;7.70;;;4.80;99.90;;;;;;5108971;28;20035;-60
2022/01/19 03:49:24;;;;;;;14.27;6.22;;;4.80;99.90;;;;;;5090818;28;20031;-60
2022/01/19 03:51:51;;;;;;;12.80;5.78;;;4.80;99.90;;;;;;5108859;28;20482;-60
2022/01/19 03:54:17;;;;;;;19.00;8.07;;;4.80;99.90;;;;;;5110684;28;20035;-60
2022/01/19 03:56:42;;;;;;;12.82;5.70;;;4.80;99.90;;;;;;5108778;28;20028;-60
2022/01/19 03:59:08;;;;;;;21.15;6.38;;;4.80;99.90;;;;;;5110944;28;20023;-60
2022/01/19 04:01:33;;;;;;;11.18;5.88;;;4.80;99.90;;;;;;5108457;28;20067;-60
2022/01/19 04:04:16;;;;;;;14.27;6.60;;;4.80;99.90;;;;;;5110422;28;20030;-60
2022/01/19 04:06:55;;;;;;;15.30;7.38;;;4.80;99.90;;;;;;5097816;28;20024;-61
2022/01/19 04:09:22;;;;;;;18.70;7.75;;;4.70;99.90;;;;;;5090271;28;20016;-60
2022/01/19 04:11:47;;;;;;;15.25;6.90;;;4.80;99.90;;;;;;5107873;28;20551;-60
2022/01/19 04:14:22;;;;;;;12.50;6.53;;;4.70;99.90;;;;;;5110411;28;20219;-60
2022/01/19 04:17:00;;;;;;;12.65;6.45;;;4.70;99.90;;;;;;5098916;28;20453;-60
2022/01/19 04:19:29;;;;;;;13.07;6.57;;;4.70;99.90;;;;;;5110388;28;20043;-60
2022/01/19 04:21:57;;;;;;;17.45;7.78;;;4.70;99.90;;;;;;5107929;28;20102;-60
2022/01/19 04:24:23;;;;;;;17.23;6.90;;;4.60;99.90;;;;;;5110320;28;20038;-60
2022/01/19 04:26:58;;;;;;;17.17;7.53;;;4.70;99.90;;;;;;5108097;28;20127;-60
2022/01/19 04:29:24;;;;;;;15.43;7.43;;;4.70;99.90;;;;;;5089948;28;20392;-61
2022/01/19 04:31:50;;;;;;;18.40;7.80;;;4.70;99.90;;;;;;5107466;28;20027;-60
2022/01/19 04:34:17;;;;;;;19.35;8.05;;;4.70;99.90;;;;;;5109888;28;20311;-60
2022/01/19 04:39:26;;;;;;;18.73;8.32;;;4.70;99.90;;;;;;5089575;28;20047;-60
2022/01/19 04:44:53;;;;;;;20.80;9.23;;;4.70;99.90;;;;;;5109896;28;20039;-60
2022/01/19 05:03:58;;;;;;;22.13;8.43;;;4.70;99.90;;;;;;5089454;28;20100;-60
2022/01/19 05:06:25;;;;;;;18.95;8.23;;;4.70;99.90;;;;;;5086097;28;20444;-61
2022/01/19 05:09:09;;;;;;;13.63;7.13;;;4.70;99.90;;;;;;5108880;28;20471;-60
2022/01/19 05:14:19;;;;;;;15.10;7.05;;;4.70;99.90;;;;;;5087977;28;20031;-60
2022/01/19 05:16:45;;;;;;;16.02;7.50;;;4.70;99.90;;;;;;5105694;28;20482;-60
2022/01/19 05:19:10;;;;;;;15.55;7.75;;;4.70;99.90;;;;;;5107344;28;20040;-60
2022/01/19 05:21:36;;;;;;;11.02;6.43;;;4.70;99.90;;;;;;5106198;28;20056;-61
2022/01/19 05:24:04;;;;;;;15.27;9.40;;;4.70;99.90;;;;;;5108492;28;20088;-60
2022/01/19 05:26:31;;;;;;;12.45;8.10;;;4.70;99.90;;;;;;5106179;28;20515;-60
2022/01/19 05:28:58;;;;;;;14.32;6.53;;;4.70;99.90;;;;;;5108288;28;20035;-60
2022/01/19 05:31:24;;;;;;;12.30;6.57;;;4.70;99.90;;;;;;5106140;28;20563;-60
2022/01/19 05:33:49;;;;;;;14.57;7.40;;;4.70;99.90;;;;;;5108113;28;20027;-60
2022/01/19 05:36:15;;;;;;;13.73;7.20;;;4.70;99.90;;;;;;5106359;28;20062;-60
2022/01/19 05:38:40;;;;;;;20.70;7.03;;;4.70;99.90;;;;;;5108022;28;20020;-60
2022/01/19 05:41:05;;;;;;;13.02;6.40;;;4.70;99.90;;;;;;5106011;28;20032;-60
2022/01/19 05:43:31;;;;;;;12.70;5.88;;;4.70;99.90;;;;;;5100935;28;20011;-60
2022/01/19 05:45:57;;;;;;;11.93;6.15;;;4.70;99.90;;;;;;5104505;28;20035;-60
2022/01/19 05:48:24;;;;;;;15.90;6.80;;;4.70;99.90;;;;;;5098586;28;20246;-60
2022/01/19 05:50:49;;;;;;;16.40;7.72;;;4.70;99.90;;;;;;5107231;28;20059;-60
2022/01/19 05:53:16;;;;;;;15.73;7.25;;;4.60;99.90;;;;;;5105874;28;20047;-60
2022/01/19 05:55:42;;;;;;;15.05;6.47;;;4.60;99.90;;;;;;5108006;28;20106;-60
2022/01/19 05:58:07;;;;;;;14.80;7.40;;;4.60;99.90;;;;;;5105744;28;20444;-61
2022/01/19 06:00:33;;;;;;;14.52;7.05;;;4.60;99.90;;;;;;5107737;28;20026;-60
2022/01/19 06:02:58;;;;;;;13.00;6.72;;;4.60;99.90;;;;;;5105775;28;20032;-62
2022/01/19 06:05:24;;;;;;;13.07;7.25;;;4.60;99.90;;;;;;5107855;28;20023;-60
2022/01/19 06:07:59;;;;;;;15.02;7.45;;;4.60;99.90;;;;;;5104618;28;20035;-60
2022/01/19 06:10:43;;;;;;;17.98;6.35;;;4.60;99.90;;;;;;5108039;28;20106;-60
2022/01/19 06:13:09;;;;;;;12.98;6.25;;;4.60;99.90;;;;;;5089528;28;20235;-60
2022/01/19 06:15:34;;;;;;;14.38;6.45;;;4.60;99.90;;;;;;5107580;28;20691;-59
2022/01/19 06:17:59;;;;;;;14.93;6.50;;;4.60;99.90;;;;;;5104873;28;20034;-59
2022/01/19 06:20:25;;;;;;;18.90;6.63;;;4.60;99.90;;;;;;5100454;28;20100;-54
2022/01/19 06:22:52;;;;;;;11.75;6.90;;;4.60;99.90;;;;;;5100513;28;20043;-60
2022/01/19 06:25:17;;;;;;;17.33;7.70;;;4.60;99.90;;;;;;5107367;28;20039;-61
2022/01/19 06:27:43;;;;;;;13.50;7.38;;;4.60;99.90;;;;;;5104105;28;20426;-61
2022/01/19 06:30:09;;;;;;;17.40;7.78;;;4.60;99.90;;;;;;5107689;28;20023;-55
2022/01/19 06:32:35;;;;;;;16.35;8.20;;;4.60;99.90;;;;;;5109632;28;20407;-52
2022/01/19 06:35:00;;;;;;;13.13;6.03;;;4.50;99.90;;;;;;5111202;28;20632;-61
2022/01/19 06:37:26;;;;;;;12.38;6.93;;;4.50;99.90;;;;;;5096360;28;20523;-62
2022/01/19 06:39:52;;;;;;;15.20;7.13;;;4.50;99.90;;;;;;5110747;28;20475;-61
2022/01/19 06:42:17;;;;;;;12.05;7.38;;;4.50;99.90;;;;;;5101875;28;20023;-60
2022/01/19 06:44:43;;;;;;;14.00;6.30;;;4.50;99.90;;;;;;5111320;28;20032;-60
2022/01/19 06:47:08;;;;;;;11.20;6.32;;;4.50;99.90;;;;;;5109513;28;20118;-60
2022/01/19 06:49:34;;;;;;;16.90;8.30;;;4.50;99.90;;;;;;5111356;28;20036;-60
2022/01/19 06:52:00;;;;;;;18.25;7.28;;;4.50;99.90;;;;;;5108970;28;20392;-57
2022/01/19 06:54:25;;;;;;;15.93;6.28;;;4.40;99.90;;;;;;5110747;28;20016;-60
2022/01/19 06:56:50;;;;;;;13.63;7.15;;;4.40;99.90;;;;;;5108944;28;20042;-57
2022/01/19 06:59:16;;;;;;;22.00;7.57;;;4.50;99.90;;;;;;5110962;28;20085;-60
2022/01/19 07:01:41;;;;;;;19.40;7.60;;;4.50;99.90;;;;;;5108469;28;20031;-60
2022/01/19 07:04:10;;;;;;;16.25;6.50;;;4.50;99.90;;;;;;5110976;28;20020;-60
2022/01/19 07:06:36;;;;;;;19.27;7.45;;;4.40;99.90;;;;;;5108694;28;20031;-60
2022/01/19 07:09:01;;;;;;;19.38;8.05;;;4.40;99.90;;;;;;5110850;28;20053;-57
2022/01/19 07:11:27;;;;;;;11.98;5.57;;;4.40;99.90;;;;;;5108741;28;20319;-57
2022/01/19 07:13:52;;;;;;;13.93;7.88;;;4.30;99.90;;;;;;5111385;28;20035;-56
2022/01/19 07:16:18;;;;;;;12.73;5.88;;;4.30;99.90;;;;;;5108711;28;20032;-60
2022/01/19 07:18:43;;;;;;;17.05;7.80;;;4.30;99.90;;;;;;5109778;28;20039;-60
2022/01/19 07:21:09;;;;;;;13.10;6.75;;;4.30;99.90;;;;;;5108903;28;20460;-61
2022/01/19 07:23:34;;;;;;;16.65;7.28;;;4.30;99.90;;;;;;5110747;28;20412;-60
2022/01/19 07:26:00;;;;;;;15.82;7.10;;;4.30;99.90;;;;;;5108257;28;20467;-59
2022/01/19 07:28:25;;;;;;;15.00;6.55;;;4.30;99.90;;;;;;5110504;28;20028;-60
2022/01/19 07:30:51;;;;;;;12.05;5.85;;;4.30;99.90;;;;;;5108297;28;20110;-59
2022/01/19 07:33:16;;;;;;;14.05;7.03;;;4.20;99.90;;;;;;5110525;28;20054;-60
2022/01/19 07:35:42;;;;;;;17.80;7.75;;;4.30;99.90;;;;;;5109929;28;20039;-60
2022/01/19 07:38:07;;;;;;;13.55;6.82;;;4.30;99.90;;;;;;5089159;28;20032;-58
2022/01/19 07:40:33;;;;;;;14.60;6.80;;;4.30;99.90;;;;;;5109670;28;20047;-60
2022/01/19 07:42:58;;;;;;;14.10;7.90;;;4.30;99.90;;;;;;5099611;28;20447;-60
2022/01/19 07:45:24;;;;;;;14.43;7.30;;;4.40;99.90;;;;;;5109807;28;20023;-60
2022/01/19 07:47:49;;;;;;;12.65;6.00;;;4.40;99.90;;;;;;5091396;28;20455;-60
2022/01/19 07:50:15;;;;;;;16.33;7.22;;;4.50;99.90;;;;;;5109234;28;20053;-60
2022/01/19 07:52:41;;;;;;;18.67;7.28;;;4.40;99.90;;;;;;5107938;28;20027;-59
2022/01/19 07:55:07;;;;;;;18.65;8.00;;;4.50;99.90;;;;;;5109507;28;20392;-59
2022/01/19 07:57:32;;;;;;;20.50;9.27;;;4.50;99.90;;;;;;5107109;28;20402;-58
2022/01/19 07:59:58;;;;;;;13.32;7.60;;;4.60;99.90;;;;;;5109602;28;20032;-59
2022/01/19 08:02:30;;;;;;;16.00;6.90;;;4.60;99.90;;;;;;5094895;28;20031;-59
2022/01/19 08:04:55;;;;;;;16.98;6.65;;;4.70;99.90;;;;;;5089555;28;20089;-56
2022/01/19 08:07:21;;;;;;;13.73;6.38;;;4.70;99.90;;;;;;5106561;28;20024;-60
2022/01/19 08:09:46;;;;;;;13.75;6.65;;;4.80;99.90;;;;;;5109262;28;20503;-61
2022/01/19 08:12:12;;;;;;;15.27;6.53;;;4.80;99.90;;;;;;5096268;28;20017;-60
2022/01/19 08:14:37;;;;;;;18.85;6.80;;;4.80;99.90;;;;;;5108941;28;20568;-61
2022/01/19 08:17:03;;;;;;;13.45;5.85;;;4.90;99.90;;;;;;5107350;28;20031;-56
2022/01/19 08:19:28;;;;;;;10.38;5.22;;;5.10;99.90;;;;;;5108984;28;20427;-60
2022/01/19 08:21:54;;;;;;;15.43;5.50;;;5.40;99.90;;;;;;5107269;28;20089;-59
2022/01/19 08:24:19;;;;;;;12.52;6.03;;;5.80;99.90;;;;;;5109374;28;20027;-60
2022/01/19 08:26:45;;;;;;;13.10;5.60;;;6.00;99.90;;;;;;5107174;28;20410;-61
2022/01/19 08:29:10;;;;;;;13.23;5.15;;;6.30;99.90;;;;;;5109465;28;20490;-60
2022/01/19 08:31:36;;;;;;;13.32;5.47;;;6.70;99.90;;;;;;5106913;28;20103;-60
2022/01/19 08:34:02;;;;;;;12.13;5.78;;;7.10;99.90;;;;;;5109117;28;20539;-61
2022/01/19 08:36:28;;;;;;;11.90;6.10;;;7.60;99.90;;;;;;5107148;28;20031;-60
2022/01/19 08:38:54;;;;;;;10.70;5.47;;;7.80;99.90;;;;;;5109380;28;20051;-60
2022/01/19 08:41:20;;;;;;;10.60;6.03;;;8.00;99.90;;;;;;5107024;28;20051;-60
2022/01/19 08:43:46;;;;;;;10.75;5.80;;;8.50;99.90;;;;;;5104684;28;20126;-60
2022/01/19 08:46:12;;;;;;;13.38;6.70;;;8.70;99.90;;;;;;5106954;28;20043;-60
2022/01/19 08:48:37;;;;;;;11.73;5.05;;;8.90;99.90;;;;;;5108882;28;20031;-60
2022/01/19 08:51:04;;;;;;;10.80;5.15;;;9.10;99.90;;;;;;5106647;28;20073;-62
2022/01/19 08:53:30;;;;;;;10.98;5.53;;;9.10;99.90;;;;;;5109511;28;20432;-60
2022/01/19 08:55:56;;;;;;;12.75;6.13;;;9.40;99.90;;;;;;5106604;28;20027;-60
2022/01/19 08:58:22;;;;;;;12.77;5.05;;;9.60;99.90;;;;;;5108041;28;20023;-61
2022/01/19 09:00:48;;;;;;;11.23;5.78;;;10.00;99.90;;;;;;5108668;28;20042;-61
2022/01/19 09:03:15;;;;;;;11.88;6.00;;;10.10;99.90;;;;;;5107120;28;20042;-61
2022/01/19 09:05:41;;;;;;;9.23;5.28;;;10.30;99.40;;;;;;5108496;28;20031;-60
2022/01/19 09:08:06;;;;;;;14.25;6.70;;;10.50;96.30;;;;;;5106451;28;20038;-60
2022/01/19 09:10:32;;;;;;;11.07;5.68;;;10.60;95.30;;;;;;5108769;28;20069;-60
2022/01/19 09:12:57;;;;;;;8.30;5.32;;;10.70;95.50;;;;;;5088250;28;20031;-61
2022/01/19 09:15:23;;;;;;;11.48;5.40;;;10.80;95.20;;;;;;5107642;28;20085;-61
2022/01/19 09:17:50;;;;;;;13.95;5.57;;;10.90;94.90;;;;;;5089584;28;20031;-60
2022/01/19 09:20:16;;;;;;;9.38;5.60;;;11.70;91.70;;;;;;5107551;28;20531;-58
2022/01/19 09:22:43;;;;;;;9.70;5.55;;;12.00;88.30;;;;;;5090524;28;20055;-60
2022/01/19 09:25:10;;;;;;;14.57;6.35;;;12.40;85.60;;;;;;5108055;28;20031;-60
2022/01/19 09:27:38;;;;;;;12.98;6.10;;;12.30;73.90;;;;;;5106297;28;20027;-60
2022/01/19 09:30:08;;;;;;;10.30;5.68;;;12.00;77.50;;;;;;5108171;28;20102;-58
2022/01/19 09:32:33;;;;;;;9.73;5.97;;;10.90;82.90;;;;;;5099439;28;20067;-57
2022/01/19 09:35:06;;;;;;;10.48;6.80;;;9.90;93.90;;;;;;5107998;28;20059;-60
2022/01/19 09:37:32;;;;;;;13.75;6.65;;;9.00;96.80;;;;;;5106819;28;20391;-59
2022/01/19 09:39:58;;;;;;;15.52;7.22;;;8.50;99.90;;;;;;5107973;28;20034;-60
2022/01/19 09:42:23;;;;;;;11.43;6.63;;;8.00;99.90;;;;;;5090611;28;20051;-59
2022/01/19 09:44:49;;;;;;;11.77;6.72;;;7.60;99.90;;;;;;5107698;28;20113;-60
2022/01/19 09:47:14;;;;;;;12.27;6.72;;;7.50;99.90;;;;;;5106683;28;20072;-60
2022/01/19 09:49:40;;;;;;;11.45;6.63;;;7.30;99.90;;;;;;5107757;28;20040;-60
2022/01/19 09:52:06;;;;;;;7.13;5.47;;;7.10;99.90;;;;;;5105893;28;20118;-56
2022/01/19 09:54:31;;;;;;;10.00;6.40;;;7.00;99.90;;;;;;5107825;28;20031;-59
2022/01/19 09:56:57;;;;;;;10.48;6.35;;;6.90;99.90;;;;;;5105626;28;20024;-60
2022/01/19 09:59:24;;;;;;;9.63;5.78;;;6.80;99.90;;;;;;5107687;28;20039;-58
2022/01/19 10:01:52;;;;;;;9.35;6.30;;;6.80;99.90;;;;;;5105572;28;20172;-60
2022/01/19 10:04:36;;;;;;;8.38;5.60;;;6.80;99.90;;;;;;5107910;28;20398;-60
2022/01/19 10:07:22;;;;;;;9.13;6.40;;;6.80;99.90;;;;;;5099707;28;20037;-59
2022/01/19 10:09:54;;;;;;;12.23;5.35;;;6.70;99.90;;;;;;5091247;28;20048;-59
2022/01/19 10:18:31;;;;;;;12.63;7.70;;;6.70;99.90;;;;;;5108916;28;20100;-55
2022/01/19 10:21:06;;;;;;;9.65;6.00;;;6.60;99.90;;;;;;5109696;28;20046;-60
2022/01/19 10:23:39;;;;;;;11.88;6.35;;;6.70;99.90;;;;;;5111809;28;20027;-59
2022/01/19 10:26:10;;;;;;;10.68;5.65;;;6.80;99.90;;;;;;5109679;28;20028;-61
2022/01/19 10:29:03;;;;;;;11.50;6.70;;;6.80;99.90;;;;;;5111775;28;20039;-59
2022/01/19 10:31:31;;;;;;;11.23;6.88;;;6.80;99.90;;;;;;5094977;28;20027;-59
2022/01/19 10:34:16;;;;;;;13.48;7.38;;;6.90;99.90;;;;;;5111227;28;20039;-59
2022/01/19 10:36:53;;;;;;;9.18;6.72;;;7.00;99.90;;;;;;5096186;28;20028;-56
2022/01/19 10:39:21;;;;;;;9.15;6.28;;;7.10;99.90;;;;;;5111377;28;20542;-60
2022/01/19 10:41:57;;;;;;;13.52;6.65;;;7.20;99.90;;;;;;5108758;28;20050;-56
2022/01/19 10:44:30;;;;;;;;;;;7.30;99.90;;;;;;5111437;28;20114;-60
2022/01/19 10:46:56;;;;;;;9.70;5.68;;;7.40;99.90;;;;;;5108974;28;19907;-59
2022/01/19 10:49:22;;;;;;;8.75;6.20;;;7.50;99.90;;;;;;5110985;28;20092;-59
2022/01/19 10:51:48;;;;;;;8.45;5.65;;;7.60;99.90;;;;;;5108962;28;20039;-59
2022/01/19 10:54:21;;;;;;;9.07;5.82;;;7.60;99.90;;;;;;5111148;28;20023;-60
2022/01/19 10:56:52;;;;;;;10.57;6.68;;;7.70;99.90;;;;;;5108926;28;20115;-59
2022/01/19 10:59:18;;;;;;;6.32;5.00;;;7.70;99.90;;;;;;5091076;28;20050;-60
2022/01/19 11:01:53;;;;;;;8.43;5.80;;;7.70;99.90;;;;;;5108138;28;20031;-58
2022/01/19 11:04:29;;;;;;;8.68;5.70;;;7.60;99.90;;;;;;5110933;28;20122;-60
2022/01/19 11:07:05;;;;;;;9.38;6.03;;;7.60;99.90;;;;;;5097498;28;20049;-60
2022/01/19 11:09:34;;;;;;;12.23;6.95;;;7.50;99.90;;;;;;5090127;28;20495;-60
2022/01/19 11:12:05;;;;;;;10.85;7.15;;;7.40;99.90;;;;;;5108575;28;20033;-57
2022/01/19 11:14:31;;;;;;;8.70;6.45;;;7.10;99.90;;;;;;5090576;28;20128;-60
2022/01/19 11:16:57;;;;;;;9.40;7.05;;;7.00;99.90;;;;;;5106841;28;20019;-57
2022/01/19 11:19:23;;;;;;;9.25;6.28;;;6.90;99.90;;;;;;5117450;28;20140;-59
2022/01/19 11:22:26;;;;;;;9.70;6.07;;;6.80;99.90;;;;;;5107944;28;20122;-59
2022/01/19 11:25:09;;;;;;;9.45;6.65;;;6.70;99.90;;;;;;5110640;28;20135;-60
2022/01/19 11:27:42;;;;;;;12.35;8.50;;;6.60;99.90;;;;;;5103185;28;20470;-59
2022/01/19 11:30:24;;;;;;;11.48;7.47;;;6.60;99.90;;;;;;5110211;28;20023;-60
2022/01/19 11:33:11;;;;;;;10.63;7.70;;;6.50;99.90;;;;;;5104860;28;20114;-60
2022/01/19 11:35:38;;;;;;;12.27;8.35;;;6.50;99.90;;;;;;5111222;28;20027;-60
2022/01/19 11:38:26;;;;;;;11.65;7.95;;;6.20;99.90;;;;;;5093152;28;20074;-60
2022/01/19 11:40:52;;;;;;;12.32;9.35;;;6.00;99.90;;;;;;5107432;28;20043;-58
2022/01/19 11:43:23;;;;;;;11.20;8.45;;;5.70;99.90;;;;;;5104184;28;20028;-60
2022/01/19 11:45:49;;;;;;;12.18;8.10;;;5.60;99.90;;;;;;5087750;28;20697;-60
2022/01/19 11:48:21;;;;;;;10.95;7.25;;;5.50;99.90;;;;;;5110453;28;20106;-61
2022/01/19 11:50:48;;;;;;;11.32;8.07;;;5.40;99.90;;;;;;5089528;28;20039;-60
2022/01/19 11:53:15;;;;;;;13.13;8.18;;;5.30;99.90;;;;;;5089890;28;20538;-59
2022/01/19 11:55:59;;;;;;;13.57;8.48;;;5.20;99.90;;;;;;5109460;28;20538;-60
2022/01/19 11:58:25;;;;;;;12.73;8.15;;;5.20;99.90;;;;;;5089560;28;20482;-59
2022/01/19 12:00:53;;;;;;;11.82;8.07;;;5.10;99.90;;;;;;5107173;28;20042;-60
2022/01/19 12:03:24;;;;;;;12.43;8.90;;;5.10;99.90;;;;;;5110179;28;20032;-60
2022/01/19 12:05:53;;;;;;;16.85;11.93;;;5.10;99.90;;;;;;5087783;28;20027;-59
2022/01/19 12:08:36;;;;;;;18.48;10.55;;;5.00;99.90;;;;;;5110138;28;20030;-60
2022/01/19 12:11:13;;;;;;;13.98;9.48;;;5.10;99.90;;;;;;5089273;28;20024;-60
2022/01/19 12:13:55;;;;;;;14.55;10.18;;;5.00;99.90;;;;;;5109821;28;20012;-60
2022/01/19 12:16:31;;;;;;;12.93;9.68;;;4.90;99.90;;;;;;5091998;28;20080;-60
2022/01/19 12:19:06;;;;;;;16.90;10.25;;;4.90;99.90;;;;;;5109388;28;20156;-60
2022/01/19 12:21:32;;;;;;;17.58;11.05;;;4.90;99.90;;;;;;5089355;28;20388;-60
2022/01/19 12:24:27;;;;;;;17.58;12.35;;;4.80;99.90;;;;;;5109241;28;20054;-60
2022/01/19 12:26:57;;;;;;;19.15;12.02;;;4.80;99.90;;;;;;5096250;28;20476;-60
2022/01/19 12:29:37;;;;;;;18.52;12.40;;;4.70;99.90;;;;;;5084145;28;20110;-60
2022/01/19 12:32:26;;;;;;;16.63;10.73;;;4.70;99.90;;;;;;5103592;28;20119;-59
2022/01/19 12:35:51;;;;;;;16.55;11.45;;;4.60;99.90;;;;;;5107102;28;20742;-60
2022/01/19 12:39:15;;;;;;;14.85;9.90;;;4.60;99.90;;;;;;5105719;28;20038;-60
2022/01/19 12:43:02;;;;;;;28.58;14.90;;;4.60;99.90;;;;;;5089940;28;20048;-60
2022/01/19 12:46:09;;;;;;;23.52;14.07;;;4.60;99.90;;;;;;5090914;28;20115;-61
2022/01/19 12:49:46;;;;;;;24.15;14.98;;;4.60;99.90;;;;;;5102077;28;20410;-61
2022/01/19 12:53:10;;;;;;;21.80;15.02;;;4.50;99.90;;;;;;5106726;28;20578;-60
2022/01/19 12:56:35;;;;;;;22.67;14.30;;;4.40;99.90;;;;;;5102223;28;20035;-60
2022/01/19 13:00:01;;;;;;;19.38;13.25;;;4.40;99.90;;;;;;5104746;28;20047;-61
2022/01/19 13:03:32;;;;;;;21.27;13.82;;;4.40;99.90;;;;;;5088035;28;20469;-59
2022/01/19 13:06:57;;;;;;;21.08;13.98;;;4.40;99.90;;;;;;5105325;28;20036;-60
2022/01/19 13:10:41;;;;;;;19.70;12.00;;;4.30;99.90;;;;;;5100544;28;20076;-60
2022/01/19 13:14:08;;;;;;;19.40;13.27;;;4.20;99.90;;;;;;5100078;28;20074;-60
2022/01/19 13:17:34;;;;;;;17.50;11.63;;;4.30;99.90;;;;;;5102592;28;20035;-60
2022/01/19 13:21:08;;;;;;;23.58;14.77;;;4.30;99.90;;;;;;5100430;28;20053;-58
2022/01/19 13:23:57;;;;;;;23.20;15.55;;;4.30;99.90;;;;;;5105801;28;20042;-60
2022/01/19 13:27:11;;;;;;;19.55;12.35;;;4.30;99.90;;;;;;5108013;28;20123;-59
2022/01/19 13:30:36;;;;;;;23.15;13.40;;;4.30;99.90;;;;;;5093756;28;20097;-59
2022/01/19 13:34:02;;;;;;;20.08;12.93;;;4.30;99.90;;;;;;5105932;28;20031;-60
2022/01/19 13:37:27;;;;;;;20.02;12.90;;;4.10;99.90;;;;;;5103603;28;20039;-60
2022/01/19 13:40:52;;;;;;;21.55;14.75;;;4.10;99.90;;;;;;5099974;28;20043;-60
2022/01/19 13:44:20;;;;;;;20.95;13.20;;;4.00;99.90;;;;;;5095580;28;20040;-60
2022/01/19 13:47:52;;;;;;;21.33;14.20;;;4.00;99.90;;;;;;5087732;28;20646;-61
2022/01/19 13:51:30;;;;;;;20.55;12.57;;;4.00;99.90;;;;;;5099148;28;20040;-60
2022/01/19 13:54:54;;;;;;;14.73;10.02;;;3.90;99.90;;;;;;5087932;28;20032;-61
2022/01/19 13:58:23;;;;;;;16.00;10.30;;;3.90;99.90;;;;;;5107484;28;20388;-60
2022/01/19 14:02:00;;;;;;;15.98;10.93;;;3.90;99.90;;;;;;5103894;28;20056;-60
2022/01/19 14:05:22;;;;;;;14.00;10.10;;;3.80;99.90;;;;;;5100576;28;20437;-60
2022/01/19 14:08:51;;;;;;;14.38;10.60;;;3.80;99.90;;;;;;5087489;28;20553;-60
2022/01/19 14:12:19;;;;;;;13.43;9.27;;;3.80;99.90;;;;;;5104623;28;20040;-60
2022/01/19 14:15:44;;;;;;;13.50;9.48;;;3.80;99.90;;;;;;5105155;28;20027;-56
2022/01/19 14:19:25;;;;;;;12.10;8.75;;;3.80;99.90;;;;;;5103021;28;20578;-60
2022/01/19 14:22:53;;;;;;;12.18;7.47;;;3.70;99.90;;;;;;5107586;28;20047;-63
2022/01/19 14:26:25;;;;;;;13.30;10.38;;;3.80;99.90;;;;;;5099301;28;20118;-63
2022/01/19 14:29:50;;;;;;;10.18;7.40;;;3.80;99.90;;;;;;5101738;28;20122;-64
2022/01/19 14:33:18;;;;;;;11.57;9.25;;;3.90;99.90;;;;;;5087153;28;20032;-62
2022/01/19 14:36:24;;;;;;;;;;;3.80;99.90;;;;;;5103055;28;20032;-62
2022/01/19 14:39:49;;;;;;;11.23;8.13;;;3.80;99.90;;;;;;5086272;28;19911;-65
2022/01/19 14:43:15;;;;;;;9.88;7.85;;;3.80;99.90;;;;;;5097177;28;20062;-64
2022/01/19 14:46:41;;;;;;;11.13;8.85;;;3.90;99.90;;;;;;5101887;28;20055;-62
2022/01/19 14:50:05;;;;;;;11.18;9.15;;;3.90;99.90;;;;;;5100303;28;20542;-62
2022/01/19 14:53:30;;;;;;;9.43;7.05;;;3.90;99.90;;;;;;5110755;28;20034;-64
2022/01/19 14:56:56;;;;;;;13.15;9.40;;;3.90;99.90;;;;;;5107758;28;20040;-64
2022/01/19 15:00:21;;;;;;;8.73;6.75;;;4.00;99.90;;;;;;5106213;28;20050;-61
2022/01/19 15:03:47;;;;;;;9.68;7.93;;;4.00;99.90;;;;;;5090454;28;20044;-60
2022/01/19 15:06:33;;;;;;;9.88;7.45;;;3.90;99.90;;;;;;5108660;28;20050;-48
2022/01/19 15:08:59;;;;;;;10.85;7.50;;;3.90;99.90;;;;;;5110490;28;20020;-51
2022/01/19 15:11:25;;;;;;;9.48;8.38;;;3.80;99.90;;;;;;5108896;28;20031;-52
2022/01/19 15:13:51;;;;;;;9.15;6.85;;;3.80;99.90;;;;;;5110396;28;20411;-49
2022/01/19 15:16:17;;;;;;;9.52;6.72;;;3.80;99.90;;;;;;5089606;28;20105;-54
2022/01/19 15:18:44;;;;;;;9.95;7.78;;;3.80;99.90;;;;;;5109836;28;20039;-51
2022/01/19 15:21:10;;;;;;;10.48;7.95;;;3.80;99.90;;;;;;5108706;28;20035;-49
2022/01/19 15:23:36;;;;;;;8.15;6.32;;;3.80;99.90;;;;;;5110227;28;20027;-50
2022/01/19 15:26:03;;;;;;;9.85;6.88;;;3.80;99.90;;;;;;5091637;28;20040;-51
2022/01/19 15:28:28;;;;;;;10.43;7.63;;;3.90;99.90;;;;;;5110297;28;20537;-51
2022/01/19 15:30:55;;;;;;;10.63;7.57;;;3.90;99.90;;;;;;5108339;28;20027;-51
2022/01/19 15:33:20;;;;;;;7.63;6.82;;;3.90;99.90;;;;;;5110358;28;20040;-49